sensor_id;sensor_type;location;lat;lon;timestamp;pressure;altitude;pressure_sealevel;temperature;humidity
19526;BME280;9907;42.676;26.348;2023-04-01T00:00:28;98199.28;;;10.45;91.68
19526;BME280;9907;42.676;26.348;2023-04-01T00:02:54;98186.47;;;10.48;91.03
19526;BME280;9907;42.676;26.348;2023-04-01T00:05:19;98199.50;;;10.25;92.68
19526;BME280;9907;42.676;26.348;2023-04-01T00:07:45;98196.94;;;10.16;95.82
19526;BME280;9907;42.676;26.348;2023-04-01T00:10:12;98205.66;;;10.26;93.78
19526;BME280;9907;42.676;26.348;2023-04-01T00:12:38;98192.63;;;10.23;93.90
19526;BME280;9907;42.676;26.348;2023-04-01T00:15:06;98194.00;;;10.27;92.13
19526;BME280;9907;42.676;26.348;2023-04-01T00:17:32;98189.72;;;10.34;91.50
19526;BME280;9907;42.676;26.348;2023-04-01T00:19:58;98188.03;;;10.33;91.62
19526;BME280;9907;42.676;26.348;2023-04-01T00:22:24;98190.56;;;10.17;93.80
19526;BME280;9907;42.676;26.348;2023-04-01T00:24:53;98186.16;;;10.08;94.58
19526;BME280;9907;42.676;26.348;2023-04-01T00:27:19;98172.63;;;10.09;93.75
19526;BME280;9907;42.676;26.348;2023-04-01T00:29:46;98171.22;;;9.97;95.14
19526;BME280;9907;42.676;26.348;2023-04-01T00:32:13;98169.38;;;9.98;94.00
19526;BME280;9907;42.676;26.348;2023-04-01T00:34:39;98167.66;;;9.89;95.68
19526;BME280;9907;42.676;26.348;2023-04-01T00:37:06;98163.16;;;9.89;94.44
19526;BME280;9907;42.676;26.348;2023-04-01T00:39:32;98162.31;;;9.89;94.50
19526;BME280;9907;42.676;26.348;2023-04-01T00:41:59;98152.41;;;9.81;94.71
19526;BME280;9907;42.676;26.348;2023-04-01T00:44:28;98145.25;;;9.82;95.86
19526;BME280;9907;42.676;26.348;2023-04-01T00:46:53;98135.31;;;9.92;94.99
19526;BME280;9907;42.676;26.348;2023-04-01T00:49:25;98130.19;;;9.98;93.74
19526;BME280;9907;42.676;26.348;2023-04-01T00:51:55;98137.34;;;9.98;93.80
19526;BME280;9907;42.676;26.348;2023-04-01T00:54:24;98134.69;;;9.98;93.92
19526;BME280;9907;42.676;26.348;2023-04-01T00:57:02;98131.81;;;9.91;96.87
19526;BME280;9907;42.676;26.348;2023-04-01T00:59:35;98124.34;;;9.95;96.73
19526;BME280;9907;42.676;26.348;2023-04-01T01:02:07;98130.41;;;9.79;96.30
19526;BME280;9907;42.676;26.348;2023-04-01T01:04:34;98137.38;;;9.80;96.00
19526;BME280;9907;42.676;26.348;2023-04-01T01:07:34;98128.84;;;9.76;95.54
19526;BME280;9907;42.676;26.348;2023-04-01T01:10:10;98131.75;;;9.83;94.90
19526;BME280;9907;42.676;26.348;2023-04-01T01:15:24;98125.34;;;9.94;92.65
19526;BME280;9907;42.676;26.348;2023-04-01T01:18:16;98126.22;;;10.02;91.72
19526;BME280;9907;42.676;26.348;2023-04-01T01:20:54;98122.97;;;9.91;91.37
19526;BME280;9907;42.676;26.348;2023-04-01T01:34:33;98110.97;;;9.51;94.04
19526;BME280;9907;42.676;26.348;2023-04-01T01:37:06;98113.25;;;9.46;94.58
19526;BME280;9907;42.676;26.348;2023-04-01T01:39:36;98109.63;;;9.47;95.40
19526;BME280;9907;42.676;26.348;2023-04-01T01:42:06;98113.72;;;9.59;93.99
19526;BME280;9907;42.676;26.348;2023-04-01T01:44:34;98110.28;;;9.67;93.04
19526;BME280;9907;42.676;26.348;2023-04-01T01:47:01;98118.75;;;9.62;93.61
19526;BME280;9907;42.676;26.348;2023-04-01T01:49:27;98109.13;;;9.69;92.59
19526;BME280;9907;42.676;26.348;2023-04-01T01:51:56;98109.53;;;9.74;92.38
19526;BME280;9907;42.676;26.348;2023-04-01T01:54:22;98103.88;;;9.77;92.36
19526;BME280;9907;42.676;26.348;2023-04-01T01:56:51;98103.28;;;9.66;93.86
19526;BME280;9907;42.676;26.348;2023-04-01T01:59:20;98095.19;;;9.58;94.98
19526;BME280;9907;42.676;26.348;2023-04-01T02:01:51;98100.94;;;9.63;96.77
19526;BME280;9907;42.676;26.348;2023-04-01T02:04:18;98093.91;;;9.62;98.04
19526;BME280;9907;42.676;26.348;2023-04-01T02:06:59;98091.25;;;9.62;100.00
19526;BME280;9907;42.676;26.348;2023-04-01T02:09:27;98090.47;;;9.69;99.16
19526;BME280;9907;42.676;26.348;2023-04-01T02:12:06;98086.66;;;9.72;100.00
19526;BME280;9907;42.676;26.348;2023-04-01T02:14:47;98092.81;;;9.72;100.00
19526;BME280;9907;42.676;26.348;2023-04-01T02:17:21;98085.13;;;9.69;100.00
19526;BME280;9907;42.676;26.348;2023-04-01T02:19:53;98085.00;;;9.71;100.00
19526;BME280;9907;42.676;26.348;2023-04-01T02:22:27;98083.97;;;9.72;100.00
19526;BME280;9907;42.676;26.348;2023-04-01T02:24:58;98084.16;;;9.70;100.00
19526;BME280;9907;42.676;26.348;2023-04-01T02:27:24;98090.34;;;9.71;100.00
19526;BME280;9907;42.676;26.348;2023-04-01T02:29:51;98090.66;;;9.68;100.00
19526;BME280;9907;42.676;26.348;2023-04-01T02:32:18;98090.25;;;9.63;100.00
19526;BME280;9907;42.676;26.348;2023-04-01T02:34:44;98082.41;;;9.61;100.00
19526;BME280;9907;42.676;26.348;2023-04-01T02:37:11;98078.09;;;9.60;100.00
19526;BME280;9907;42.676;26.348;2023-04-01T02:39:37;98084.00;;;9.54;100.00
19526;BME280;9907;42.676;26.348;2023-04-01T02:42:02;98081.53;;;9.53;100.00
19526;BME280;9907;42.676;26.348;2023-04-01T02:44:28;98078.00;;;9.52;100.00
19526;BME280;9907;42.676;26.348;2023-04-01T02:46:53;98074.66;;;9.50;100.00
19526;BME280;9907;42.676;26.348;2023-04-01T02:49:19;98080.38;;;9.38;100.00
19526;BME280;9907;42.676;26.348;2023-04-01T02:51:45;98075.41;;;9.43;100.00
19526;BME280;9907;42.676;26.348;2023-04-01T02:54:10;98070.78;;;9.45;100.00
19526;BME280;9907;42.676;26.348;2023-04-01T02:56:35;98068.88;;;9.37;100.00
19526;BME280;9907;42.676;26.348;2023-04-01T02:59:01;98059.19;;;9.36;100.00
19526;BME280;9907;42.676;26.348;2023-04-01T03:01:26;98072.53;;;9.36;100.00
19526;BME280;9907;42.676;26.348;2023-04-01T03:03:52;98056.72;;;9.35;100.00
19526;BME280;9907;42.676;26.348;2023-04-01T03:06:17;98054.72;;;9.37;100.00
19526;BME280;9907;42.676;26.348;2023-04-01T03:08:43;98058.88;;;9.39;100.00
19526;BME280;9907;42.676;26.348;2023-04-01T03:11:09;98056.94;;;9.41;100.00
19526;BME280;9907;42.676;26.348;2023-04-01T03:13:35;98057.28;;;9.46;100.00
19526;BME280;9907;42.676;26.348;2023-04-01T03:16:01;98056.41;;;9.38;100.00
19526;BME280;9907;42.676;26.348;2023-04-01T03:18:27;98054.72;;;9.37;100.00
19526;BME280;9907;42.676;26.348;2023-04-01T03:20:52;98049.38;;;9.37;100.00
19526;BME280;9907;42.676;26.348;2023-04-01T03:23:19;98049.38;;;9.37;100.00
19526;BME280;9907;42.676;26.348;2023-04-01T03:25:46;98051.91;;;9.38;100.00
19526;BME280;9907;42.676;26.348;2023-04-01T03:28:13;98053.28;;;9.42;100.00
19526;BME280;9907;42.676;26.348;2023-04-01T03:30:39;98052.13;;;9.45;100.00
19526;BME280;9907;42.676;26.348;2023-04-01T03:33:05;98055.09;;;9.42;100.00
19526;BME280;9907;42.676;26.348;2023-04-01T03:35:31;98061.50;;;9.49;100.00
19526;BME280;9907;42.676;26.348;2023-04-01T03:37:57;98059.94;;;9.46;100.00
19526;BME280;9907;42.676;26.348;2023-04-01T03:40:22;98056.81;;;9.51;100.00
19526;BME280;9907;42.676;26.348;2023-04-01T03:42:49;98056.63;;;9.44;100.00
19526;BME280;9907;42.676;26.348;2023-04-01T03:45:15;98056.94;;;9.41;100.00
19526;BME280;9907;42.676;26.348;2023-04-01T03:47:40;98055.38;;;9.39;100.00
19526;BME280;9907;42.676;26.348;2023-04-01T03:50:07;98061.41;;;9.41;100.00
19526;BME280;9907;42.676;26.348;2023-04-01T03:52:33;98056.63;;;9.44;100.00
19526;BME280;9907;42.676;26.348;2023-04-01T03:54:59;98058.44;;;9.44;100.00
19526;BME280;9907;42.676;26.348;2023-04-01T03:57:25;98062.56;;;9.38;100.00
19526;BME280;9907;42.676;26.348;2023-04-01T03:59:51;98061.88;;;9.36;100.00
19526;BME280;9907;42.676;26.348;2023-04-01T04:02:16;98056.72;;;9.35;100.00
19526;BME280;9907;42.676;26.348;2023-04-01T04:04:42;98052.50;;;9.32;100.00
19526;BME280;9907;42.676;26.348;2023-04-01T04:07:07;98053.44;;;9.23;100.00
19526;BME280;9907;42.676;26.348;2023-04-01T04:09:33;98051.66;;;9.32;100.00
19526;BME280;9907;42.676;26.348;2023-04-01T04:11:59;98059.66;;;9.32;100.00
19526;BME280;9907;42.676;26.348;2023-04-01T04:14:25;98059.81;;;9.30;100.00
19526;BME280;9907;42.676;26.348;2023-04-01T04:16:50;98053.03;;;9.36;100.00
19526;BME280;9907;42.676;26.348;2023-04-01T04:19:16;98054.31;;;9.32;100.00
19526;BME280;9907;42.676;26.348;2023-04-01T04:21:41;98057.00;;;9.32;100.00
19526;BME280;9907;42.676;26.348;2023-04-01T04:24:08;98051.66;;;9.32;100.00
19526;BME280;9907;42.676;26.348;2023-04-01T04:26:33;98044.19;;;9.35;100.00
19526;BME280;9907;42.676;26.348;2023-04-01T04:28:59;98039.03;;;9.34;100.00
19526;BME280;9907;42.676;26.348;2023-04-01T04:31:26;98038.19;;;9.33;100.00
19526;BME280;9907;42.676;26.348;2023-04-01T04:33:52;98032.56;;;9.36;100.00
19526;BME280;9907;42.676;26.348;2023-04-01T04:36:18;98038.94;;;9.43;100.00
19526;BME280;9907;42.676;26.348;2023-04-01T04:38:44;98024.50;;;9.46;100.00
19526;BME280;9907;42.676;26.348;2023-04-01T04:41:11;98023.16;;;9.50;100.00
19526;BME280;9907;42.676;26.348;2023-04-01T04:43:40;98014.50;;;9.48;100.00
19526;BME280;9907;42.676;26.348;2023-04-01T04:46:12;98011.16;;;9.46;100.00
19526;BME280;9907;42.676;26.348;2023-04-01T04:48:37;98008.63;;;9.44;100.00
19526;BME280;9907;42.676;26.348;2023-04-01T04:51:03;98004.66;;;9.48;100.00
19526;BME280;9907;42.676;26.348;2023-04-01T04:53:28;98008.84;;;9.51;100.00
19526;BME280;9907;42.676;26.348;2023-04-01T04:55:54;98000.84;;;9.51;100.00
19526;BME280;9907;42.676;26.348;2023-04-01T04:58:20;97996.22;;;9.53;100.00
19526;BME280;9907;42.676;26.348;2023-04-01T05:00:46;97985.22;;;9.56;100.00
19526;BME280;9907;42.676;26.348;2023-04-01T05:03:12;97990.25;;;9.59;100.00
19526;BME280;9907;42.676;26.348;2023-04-01T05:05:38;97988.09;;;9.62;100.00
19526;BME280;9907;42.676;26.348;2023-04-01T05:08:04;97975.47;;;9.64;100.00
19526;BME280;9907;42.676;26.348;2023-04-01T05:10:29;97978.66;;;9.68;100.00
19526;BME280;9907;42.676;26.348;2023-04-01T05:12:55;97976.66;;;9.70;100.00
19526;BME280;9907;42.676;26.348;2023-04-01T05:15:21;97971.97;;;9.72;100.00
19526;BME280;9907;42.676;26.348;2023-04-01T05:17:47;97967.50;;;9.72;100.00
19526;BME280;9907;42.676;26.348;2023-04-01T05:20:13;97968.50;;;9.71;100.00
19526;BME280;9907;42.676;26.348;2023-04-01T05:22:40;97963.84;;;9.73;100.00
19526;BME280;9907;42.676;26.348;2023-04-01T05:25:05;97974.19;;;9.76;100.00
19526;BME280;9907;42.676;26.348;2023-04-01T05:27:31;97979.38;;;9.78;100.00
19526;BME280;9907;42.676;26.348;2023-04-01T05:29:57;97980.88;;;9.81;100.00
19526;BME280;9907;42.676;26.348;2023-04-01T05:32:22;97987.91;;;9.82;100.00
19526;BME280;9907;42.676;26.348;2023-04-01T05:34:51;97991.41;;;9.82;100.00
19526;BME280;9907;42.676;26.348;2023-04-01T05:37:17;97993.06;;;9.83;100.00
19526;BME280;9907;42.676;26.348;2023-04-01T05:39:42;98009.56;;;9.87;100.00
19526;BME280;9907;42.676;26.348;2023-04-01T05:42:08;98007.94;;;9.86;100.00
19526;BME280;9907;42.676;26.348;2023-04-01T05:44:34;98005.91;;;9.88;100.00
19526;BME280;9907;42.676;26.348;2023-04-01T05:47:00;97994.59;;;9.86;100.00
19526;BME280;9907;42.676;26.348;2023-04-01T05:49:26;97989.13;;;9.95;100.00
19526;BME280;9907;42.676;26.348;2023-04-01T05:51:52;97988.19;;;10.04;100.00
19526;BME280;9907;42.676;26.348;2023-04-01T05:54:19;97992.22;;;10.08;100.00
19526;BME280;9907;42.676;26.348;2023-04-01T05:56:45;97994.66;;;10.27;100.00
19526;BME280;9907;42.676;26.348;2023-04-01T05:59:11;97992.19;;;10.42;100.00
19526;BME280;9907;42.676;26.348;2023-04-01T06:01:37;97990.47;;;10.75;100.00
19526;BME280;9907;42.676;26.348;2023-04-01T06:04:02;97992.22;;;11.08;100.00
19526;BME280;9907;42.676;26.348;2023-04-01T06:06:29;97993.53;;;11.37;100.00
19526;BME280;9907;42.676;26.348;2023-04-01T06:08:58;97981.66;;;11.63;97.60
19526;BME280;9907;42.676;26.348;2023-04-01T06:14:43;97985.66;;;11.67;93.51
19526;BME280;9907;42.676;26.348;2023-04-01T06:43:05;97978.03;;;12.58;83.23
19526;BME280;9907;42.676;26.348;2023-04-01T06:45:47;97977.03;;;12.59;83.22
19526;BME280;9907;42.676;26.348;2023-04-01T06:54:13;97960.22;;;12.96;82.30
19526;BME280;9907;42.676;26.348;2023-04-01T06:56:44;97952.91;;;13.13;80.69
19526;BME280;9907;42.676;26.348;2023-04-01T06:59:18;97949.25;;;13.06;80.85
19526;BME280;9907;42.676;26.348;2023-04-01T07:01:54;97954.97;;;13.03;80.95
19526;BME280;9907;42.676;26.348;2023-04-01T07:06:54;97965.16;;;13.07;79.43
19526;BME280;9907;42.676;26.348;2023-04-01T07:09:27;97961.25;;;13.18;79.47
19526;BME280;9907;42.676;26.348;2023-04-01T07:12:02;97954.34;;;13.38;78.18
19526;BME280;9907;42.676;26.348;2023-04-01T07:14:39;97957.06;;;13.53;76.42
19526;BME280;9907;42.676;26.348;2023-04-01T07:17:26;97957.22;;;13.59;76.63
19526;BME280;9907;42.676;26.348;2023-04-01T07:22:45;97951.41;;;13.71;75.28
19526;BME280;9907;42.676;26.348;2023-04-01T07:27:45;97941.22;;;13.95;75.29
19526;BME280;9907;42.676;26.348;2023-04-01T07:30:17;97933.63;;;13.99;74.39
19526;BME280;9907;42.676;26.348;2023-04-01T07:33:11;97930.47;;;14.25;71.82
19526;BME280;9907;42.676;26.348;2023-04-01T07:36:03;97927.22;;;14.29;73.44
19526;BME280;9907;42.676;26.348;2023-04-01T07:42:37;97916.09;;;14.32;73.51
19526;BME280;9907;42.676;26.348;2023-04-01T07:44:44;97907.09;;;14.54;71.67
19526;BME280;9907;42.676;26.348;2023-04-01T07:47:39;97904.19;;;14.71;70.39
19526;BME280;9907;42.676;26.348;2023-04-01T07:53:28;97900.00;;;14.68;69.63
19526;BME280;9907;42.676;26.348;2023-04-01T08:07:30;97893.78;;;14.68;67.67
19526;BME280;9907;42.676;26.348;2023-04-01T08:10:19;97895.34;;;14.55;67.79
19526;BME280;9907;42.676;26.348;2023-04-01T08:13:03;97886.88;;;14.58;69.28
19526;BME280;9907;42.676;26.348;2023-04-01T08:15:42;97882.59;;;14.64;68.12
19526;BME280;9907;42.676;26.348;2023-04-01T08:21:28;97900.00;;;14.68;67.84
19526;BME280;9907;42.676;26.348;2023-04-01T08:24:04;97885.22;;;14.79;67.22
19526;BME280;9907;42.676;26.348;2023-04-01T08:26:38;97881.19;;;14.89;66.90
19526;BME280;9907;42.676;26.348;2023-04-01T08:29:13;97885.44;;;14.98;66.14
19526;BME280;9907;42.676;26.348;2023-04-01T08:31:56;97869.78;;;15.08;66.33
19526;BME280;9907;42.676;26.348;2023-04-01T08:34:46;97861.13;;;15.13;65.79
19526;BME280;9907;42.676;26.348;2023-04-01T08:37:14;97845.94;;;14.99;65.17
19526;BME280;9907;42.676;26.348;2023-04-01T08:39:48;97829.94;;;14.91;65.76
19526;BME280;9907;42.676;26.348;2023-04-01T08:56:14;97826.81;;;16.18;66.56
19526;BME280;9907;42.676;26.348;2023-04-01T09:04:18;97812.81;;;16.55;64.67
19526;BME280;9907;42.676;26.348;2023-04-01T09:12:28;97807.91;;;17.05;64.98
19526;BME280;9907;42.676;26.348;2023-04-01T09:29:01;97800.03;;;17.17;64.07
19526;BME280;9907;42.676;26.348;2023-04-01T09:34:17;97782.75;;;17.37;64.03
19526;BME280;9907;42.676;26.348;2023-04-01T09:40:20;97762.66;;;17.20;63.05
19526;BME280;9907;42.676;26.348;2023-04-01T09:46:09;97769.91;;;17.26;64.54
19526;BME280;9907;42.676;26.348;2023-04-01T09:48:46;97769.50;;;17.29;64.15
19526;BME280;9907;42.676;26.348;2023-04-01T10:05:04;97735.63;;;17.33;63.27
19526;BME280;9907;42.676;26.348;2023-04-01T10:21:56;97699.03;;;17.64;61.87
19526;BME280;9907;42.676;26.348;2023-04-01T10:24:47;97697.53;;;17.74;62.07
19526;BME280;9907;42.676;26.348;2023-04-01T10:54:18;97647.00;;;17.30;63.78
19526;BME280;9907;42.676;26.348;2023-04-01T10:56:54;97637.44;;;17.34;63.39
19526;BME280;9907;42.676;26.348;2023-04-01T11:27:42;97584.59;;;17.65;64.97
19526;BME280;9907;42.676;26.348;2023-04-01T11:30:29;97587.53;;;17.57;65.19
19526;BME280;9907;42.676;26.348;2023-04-01T11:44:40;97550.78;;;17.87;64.07
19526;BME280;9907;42.676;26.348;2023-04-01T11:47:19;97552.31;;;17.76;65.20
19526;BME280;9907;42.676;26.348;2023-04-01T11:52:42;97538.31;;;17.86;64.66
19526;BME280;9907;42.676;26.348;2023-04-01T11:57:56;97519.81;;;17.89;65.00
19526;BME280;9907;42.676;26.348;2023-04-01T12:11:41;97495.16;;;18.04;63.21
19526;BME280;9907;42.676;26.348;2023-04-01T12:17:27;97492.28;;;18.24;64.47
19526;BME280;9907;42.676;26.348;2023-04-01T12:23:08;97479.06;;;18.16;62.96
19526;BME280;9907;42.676;26.348;2023-04-01T12:26:10;97465.78;;;18.14;63.56
19526;BME280;9907;42.676;26.348;2023-04-01T12:32:13;97456.97;;;18.19;62.72
19526;BME280;9907;42.676;26.348;2023-04-01T12:37:12;97451.19;;;18.15;63.39
19526;BME280;9907;42.676;26.348;2023-04-01T12:45:33;97441.47;;;18.32;62.86
19526;BME280;9907;42.676;26.348;2023-04-01T12:56:09;97443.94;;;18.16;64.00
19526;BME280;9907;42.676;26.348;2023-04-01T12:59:14;97442.34;;;18.08;63.86
19526;BME280;9907;42.676;26.348;2023-04-01T13:20:39;97428.56;;;18.34;58.17
19526;BME280;9907;42.676;26.348;2023-04-01T13:26:00;97431.13;;;18.47;56.98
19526;BME280;9907;42.676;26.348;2023-04-01T13:28:45;97419.22;;;18.48;57.13
19526;BME280;9907;42.676;26.348;2023-04-01T13:34:04;97409.50;;;18.47;57.55
19526;BME280;9907;42.676;26.348;2023-04-01T13:45:02;97391.09;;;18.56;58.41
19526;BME280;9907;42.676;26.348;2023-04-01T14:01:06;97365.63;;;18.45;57.94
19526;BME280;9907;42.676;26.348;2023-04-01T14:06:33;97355.72;;;18.39;56.90
19526;BME280;9907;42.676;26.348;2023-04-01T14:17:35;97337.38;;;18.41;57.09
19526;BME280;9907;42.676;26.348;2023-04-01T14:39:42;97301.38;;;18.29;54.44
19526;BME280;9907;42.676;26.348;2023-04-01T14:50:51;97275.94;;;18.19;55.06
19526;BME280;9907;42.676;26.348;2023-04-01T14:58:20;97265.06;;;18.07;55.48
19526;BME280;9907;42.676;26.348;2023-04-01T15:06:42;97292.72;;;17.91;60.53
19526;BME280;9907;42.676;26.348;2023-04-01T15:20:21;97289.28;;;17.66;62.29
19526;BME280;9907;42.676;26.348;2023-04-01T15:23:02;97291.34;;;17.64;63.00
19526;BME280;9907;42.676;26.348;2023-04-01T15:25:39;97295.09;;;17.63;63.63
19526;BME280;9907;42.676;26.348;2023-04-01T15:30:56;97293.47;;;17.62;63.05
19526;BME280;9907;42.676;26.348;2023-04-01T15:36:15;97282.50;;;17.57;63.97
19526;BME280;9907;42.676;26.348;2023-04-01T15:42:04;97287.50;;;17.53;62.34
19526;BME280;9907;42.676;26.348;2023-04-01T15:47:37;97311.69;;;17.41;63.48
19526;BME280;9907;42.676;26.348;2023-04-01T15:50:24;97380.03;;;17.35;65.55
19526;BME280;9907;42.676;26.348;2023-04-01T16:42:49;97359.84;;;14.07;80.23
19526;BME280;9907;42.676;26.348;2023-04-01T16:48:05;97349.81;;;13.88;81.80
19526;BME280;9907;42.676;26.348;2023-04-01T16:51:00;97337.00;;;13.90;78.39
19526;BME280;9907;42.676;26.348;2023-04-01T16:53:48;97357.03;;;13.88;75.41
19526;BME280;9907;42.676;26.348;2023-04-01T16:56:22;97347.59;;;13.64;75.47
19526;BME280;9907;42.676;26.348;2023-04-01T17:13:06;97347.53;;;13.51;74.27
19526;BME280;9907;42.676;26.348;2023-04-01T17:18:04;97375.06;;;13.38;74.99
19526;BME280;9907;42.676;26.348;2023-04-01T17:23:29;97399.28;;;13.45;74.64
19526;BME280;9907;42.676;26.348;2023-04-01T17:39:46;97426.25;;;13.37;74.35
19526;BME280;9907;42.676;26.348;2023-04-01T17:50:56;97491.78;;;13.13;80.35
19526;BME280;9907;42.676;26.348;2023-04-01T17:56:45;97507.13;;;13.19;79.89
19526;BME280;9907;42.676;26.348;2023-04-01T17:59:32;97513.44;;;13.11;80.94
19526;BME280;9907;42.676;26.348;2023-04-01T18:13:27;97516.13;;;13.11;79.75
19526;BME280;9907;42.676;26.348;2023-04-01T18:18:48;97537.75;;;13.10;78.75
19526;BME280;9907;42.676;26.348;2023-04-01T18:26:49;97555.59;;;12.88;86.59
19526;BME280;9907;42.676;26.348;2023-04-01T18:31:51;97570.41;;;12.84;85.09
19526;BME280;9907;42.676;26.348;2023-04-01T18:34:52;97583.63;;;12.86;83.00
19526;BME280;9907;42.676;26.348;2023-04-01T18:39:57;97589.78;;;12.86;81.68
19526;BME280;9907;42.676;26.348;2023-04-01T18:48:03;97599.69;;;12.86;83.55
19526;BME280;9907;42.676;26.348;2023-04-01T18:50:56;97608.91;;;12.83;83.61
19526;BME280;9907;42.676;26.348;2023-04-01T18:53:35;97616.13;;;12.83;84.85
19526;BME280;9907;42.676;26.348;2023-04-01T18:56:10;97609.47;;;12.79;86.33
19526;BME280;9907;42.676;26.348;2023-04-01T18:58:50;97605.31;;;12.76;87.47
19526;BME280;9907;42.676;26.348;2023-04-01T19:06:43;97598.75;;;12.79;88.35
19526;BME280;9907;42.676;26.348;2023-04-01T19:09:31;97587.69;;;12.67;89.46
19526;BME280;9907;42.676;26.348;2023-04-01T19:15:15;97589.31;;;12.83;87.07
19526;BME280;9907;42.676;26.348;2023-04-01T19:20:18;97608.53;;;12.86;86.16
19526;BME280;9907;42.676;26.348;2023-04-01T19:25:57;97624.53;;;12.80;85.95
19526;BME280;9907;42.676;26.348;2023-04-01T19:31:39;97634.34;;;12.73;83.92
19526;BME280;9907;42.676;26.348;2023-04-01T19:36:41;97638.84;;;12.72;86.42
19526;BME280;9907;42.676;26.348;2023-04-01T19:39:34;97656.69;;;12.65;88.14
19526;BME280;9907;42.676;26.348;2023-04-01T19:47:35;97711.53;;;12.54;89.48
19526;BME280;9907;42.676;26.348;2023-04-01T19:52:42;97693.53;;;12.48;89.90
19526;BME280;9907;42.676;26.348;2023-04-01T19:55:27;97694.22;;;12.42;90.20
19526;BME280;9907;42.676;26.348;2023-04-01T20:00:35;97678.44;;;12.33;89.56
19526;BME280;9907;42.676;26.348;2023-04-01T20:03:25;97659.22;;;12.29;90.14
19526;BME280;9907;42.676;26.348;2023-04-01T20:06:16;97652.53;;;12.48;81.11
19526;BME280;9907;42.676;26.348;2023-04-01T20:16:55;97595.63;;;12.60;75.36
19526;BME280;9907;42.676;26.348;2023-04-01T20:21:57;97592.22;;;12.52;77.98
19526;BME280;9907;42.676;26.348;2023-04-01T20:24:32;97597.84;;;12.42;80.39
19526;BME280;9907;42.676;26.348;2023-04-01T20:27:22;97601.16;;;12.44;79.17
19526;BME280;9907;42.676;26.348;2023-04-01T20:35:35;97620.38;;;12.33;80.43
19526;BME280;9907;42.676;26.348;2023-04-01T20:44:14;97631.72;;;12.50;75.96
19526;BME280;9907;42.676;26.348;2023-04-01T20:46:48;97641.34;;;12.59;73.20
19526;BME280;9907;42.676;26.348;2023-04-01T20:49:33;97646.81;;;12.65;73.14
19526;BME280;9907;42.676;26.348;2023-04-01T20:52:14;97649.47;;;12.65;72.75
19526;BME280;9907;42.676;26.348;2023-04-01T20:54:55;97654.47;;;12.68;72.62
19526;BME280;9907;42.676;26.348;2023-04-01T20:57:33;97662.41;;;12.47;74.89
19526;BME280;9907;42.676;26.348;2023-04-01T21:08:56;97659.16;;;12.37;76.44
19526;BME280;9907;42.676;26.348;2023-04-01T21:12:11;97665.69;;;12.35;76.89
19526;BME280;9907;42.676;26.348;2023-04-01T21:22:36;97659.50;;;12.34;73.55
19526;BME280;9907;42.676;26.348;2023-04-01T21:25:26;97660.03;;;12.15;75.35
19526;BME280;9907;42.676;26.348;2023-04-01T21:27:59;97662.97;;;12.20;73.37
19526;BME280;9907;42.676;26.348;2023-04-01T21:33:18;97649.78;;;12.18;71.93
19526;BME280;9907;42.676;26.348;2023-04-01T21:36:20;97647.56;;;12.22;71.28
19526;BME280;9907;42.676;26.348;2023-04-01T21:44:25;97649.59;;;12.20;70.01
19526;BME280;9907;42.676;26.348;2023-04-01T21:47:16;97655.88;;;12.27;69.78
19526;BME280;9907;42.676;26.348;2023-04-01T21:52:38;97660.72;;;12.09;69.24
19526;BME280;9907;42.676;26.348;2023-04-01T21:58:18;97666.44;;;12.06;69.42
19526;BME280;9907;42.676;26.348;2023-04-01T22:01:26;97665.81;;;12.04;68.65
19526;BME280;9907;42.676;26.348;2023-04-01T22:06:49;97682.75;;;11.96;69.24
19526;BME280;9907;42.676;26.348;2023-04-01T22:09:31;97690.09;;;11.94;69.36
19526;BME280;9907;42.676;26.348;2023-04-01T22:12:17;97697.22;;;11.79;70.49
19526;BME280;9907;42.676;26.348;2023-04-01T22:15:26;97688.56;;;11.77;71.28
19526;BME280;9907;42.676;26.348;2023-04-01T22:21:21;97699.81;;;11.64;69.64
19526;BME280;9907;42.676;26.348;2023-04-01T22:23:57;97715.44;;;11.53;71.33
19526;BME280;9907;42.676;26.348;2023-04-01T22:26:33;97713.72;;;11.60;70.34
19526;BME280;9907;42.676;26.348;2023-04-01T22:31:51;97711.28;;;11.81;67.60
19526;BME280;9907;42.676;26.348;2023-04-01T22:45:44;97708.78;;;11.49;69.23
19526;BME280;9907;42.676;26.348;2023-04-01T22:56:00;97710.56;;;11.17;71.11
19526;BME280;9907;42.676;26.348;2023-04-01T22:58:35;97714.06;;;11.18;70.09
19526;BME280;9907;42.676;26.348;2023-04-01T23:01:14;97704.75;;;11.14;70.68
19526;BME280;9907;42.676;26.348;2023-04-01T23:03:43;97704.13;;;11.35;68.65
19526;BME280;9907;42.676;26.348;2023-04-01T23:06:26;97703.41;;;11.49;67.70
19526;BME280;9907;42.676;26.348;2023-04-01T23:09:02;97705.28;;;11.40;68.71
19526;BME280;9907;42.676;26.348;2023-04-01T23:11:58;97698.59;;;11.44;67.66
19526;BME280;9907;42.676;26.348;2023-04-01T23:14:47;97693.84;;;11.54;67.43
19526;BME280;9907;42.676;26.348;2023-04-01T23:22:56;97714.03;;;11.57;67.24
19526;BME280;9907;42.676;26.348;2023-04-01T23:26:08;97699.31;;;11.61;65.74
19526;BME280;9907;42.676;26.348;2023-04-01T23:28:46;97704.16;;;11.65;66.06
19526;BME280;9907;42.676;26.348;2023-04-01T23:34:02;97723.53;;;11.67;65.70
19526;BME280;9907;42.676;26.348;2023-04-01T23:36:30;97718.59;;;11.56;66.61
19526;BME280;9907;42.676;26.348;2023-04-01T23:38:57;97723.38;;;11.30;67.95
19526;BME280;9907;42.676;26.348;2023-04-01T23:41:28;97721.69;;;11.37;67.37
19526;BME280;9907;42.676;26.348;2023-04-01T23:44:02;97730.97;;;11.49;66.75
19526;BME280;9907;42.676;26.348;2023-04-01T23:46:29;97739.63;;;11.59;66.18
19526;BME280;9907;42.676;26.348;2023-04-01T23:48:56;97745.00;;;11.51;66.68
19526;BME280;9907;42.676;26.348;2023-04-01T23:51:39;97738.34;;;11.47;66.99
19526;BME280;9907;42.676;26.348;2023-04-01T23:54:17;97742.41;;;11.35;66.78
19526;BME280;9907;42.676;26.348;2023-04-01T23:56:52;97742.97;;;11.22;67.86
19526;BME280;9907;42.676;26.348;2023-04-01T23:59:23;97737.13;;;11.19;67.68
